createdAt,value
2023-01-19T00:01:26.759Z,96003.56
2023-01-19T00:03:53.473Z,96020.44
2023-01-19T00:06:20.488Z,96011.41
2023-01-19T00:08:49.250Z,96009.72
2023-01-19T00:11:19.157Z,96019.84
2023-01-19T00:13:52.137Z,95989.28
2023-01-19T00:16:22.496Z,96001.09
2023-01-19T00:18:51.813Z,96016.97
2023-01-19T00:21:18.934Z,96008.94
2023-01-19T00:23:48.704Z,96014.47
2023-01-19T00:26:16.542Z,96009.81
2023-01-19T00:28:44.072Z,96006.84
2023-01-19T00:31:11.672Z,96003.97
2023-01-19T00:33:38.269Z,96006.16
2023-01-19T00:36:05.739Z,96006.34
2023-01-19T00:38:32.499Z,96008.22
2023-01-19T00:40:59.123Z,96008.72
2023-01-19T00:43:25.955Z,96024.19
2023-01-19T00:45:52.930Z,96021.31
2023-01-19T00:48:19.511Z,96024.78
2023-01-19T00:50:47.794Z,96020.41
2023-01-19T00:53:14.493Z,96015.47
2023-01-19T00:55:41.242Z,96008.22
2023-01-19T00:58:07.811Z,96010.00
2023-01-19T01:00:34.476Z,96003.88
2023-01-19T01:03:01.698Z,95987.00
2023-01-19T01:05:46.962Z,95998.31
2023-01-19T01:08:13.706Z,96001.28
2023-01-19T01:10:40.218Z,95993.34
2023-01-19T01:13:20.288Z,95990.97
2023-01-19T01:15:52.025Z,95992.66
2023-01-19T01:18:18.836Z,95995.84
2023-01-19T01:20:45.500Z,96004.06
2023-01-19T01:23:23.080Z,96004.66
2023-01-19T01:25:51.024Z,96002.47
2023-01-19T01:28:17.820Z,95998.91
2023-01-19T01:30:44.501Z,96000.19
2023-01-19T01:33:14.130Z,95990.28
2023-01-19T01:35:40.787Z,95989.09
2023-01-19T01:38:07.948Z,95987.41
2023-01-19T01:40:34.843Z,95988.78
2023-01-19T01:43:03.223Z,95998.00
2023-01-19T01:45:34.378Z,96004.03
2023-01-19T01:48:14.855Z,96007.84
2023-01-19T01:51:09.655Z,96009.53
2023-01-19T01:53:37.930Z,95997.03
2023-01-19T01:56:09.257Z,95990.59
2023-01-19T01:58:37.840Z,95989.19
2023-01-19T02:01:24.609Z,95981.44
2023-01-19T02:03:52.693Z,95964.19
2023-01-19T02:06:20.305Z,95978.16
2023-01-19T02:09:12.932Z,95985.00
2023-01-19T02:11:59.564Z,95968.25
2023-01-19T02:14:26.320Z,95957.94
2023-01-19T02:16:53.133Z,95989.38
2023-01-19T02:19:31.277Z,95998.50
2023-01-19T02:22:18.712Z,95991.38
2023-01-19T02:24:45.285Z,95979.88
2023-01-19T02:27:12.642Z,95992.97
2023-01-19T02:29:39.955Z,95990.78
2023-01-19T02:32:08.846Z,95981.34
2023-01-19T02:34:35.686Z,95989.69
2023-01-19T02:37:13.726Z,95993.25
2023-01-19T02:39:45.645Z,95994.22
2023-01-19T02:42:21.797Z,95988.59
2023-01-19T02:44:52.371Z,95988.88
2023-01-19T02:47:19.973Z,95979.75
2023-01-19T02:49:57.961Z,95991.47
2023-01-19T02:52:25.868Z,95988.28
2023-01-19T02:55:17.076Z,95984.31
2023-01-19T02:57:59.819Z,95992.66
2023-01-19T03:00:33.224Z,95998.13
2023-01-19T03:03:24.145Z,95994.44
2023-01-19T03:06:09.048Z,95991.19
2023-01-19T03:08:55.091Z,95998.22
2023-01-19T03:11:27.706Z,95994.53
2023-01-19T03:14:18.766Z,96010.78
2023-01-19T03:16:50.728Z,96009.50
2023-01-19T03:19:37.038Z,95995.94
2023-01-19T03:22:17.503Z,96003.56
2023-01-19T03:24:46.590Z,95997.03
2023-01-19T03:27:51.342Z,96003.06
2023-01-19T03:30:24.513Z,96002.28
2023-01-19T03:33:00.565Z,95996.13
2023-01-19T03:35:31.932Z,95978.66
2023-01-19T03:38:03.301Z,95987.19
2023-01-19T03:40:32.685Z,95983.03
2023-01-19T03:43:01.296Z,95990.28
2023-01-19T03:45:28.495Z,95993.06
2023-01-19T03:47:55.422Z,95992.56
2023-01-19T03:50:47.389Z,96002.19
2023-01-19T03:53:16.482Z,96001.56
2023-01-19T03:55:46.621Z,96007.66
2023-01-19T03:58:18.342Z,96010.50
2023-01-19T04:00:44.939Z,96013.19
2023-01-19T04:03:15.276Z,96032.63
2023-01-19T04:05:42.533Z,96023.81
2023-01-19T04:08:10.025Z,96024.78
2023-01-19T04:10:37.261Z,96014.38
2023-01-19T04:13:04.794Z,96011.38
2023-01-19T04:15:32.334Z,96013.28
2023-01-19T04:18:00.713Z,96013.47
2023-01-19T04:20:28.485Z,96018.75
2023-01-19T04:22:59.192Z,96027.06
2023-01-19T04:25:26.556Z,96042.25
2023-01-19T04:27:53.900Z,96047.50
2023-01-19T04:30:20.809Z,96040.56
2023-01-19T04:32:47.698Z,96025.97
2023-01-19T04:35:14.404Z,96018.84
2023-01-19T04:37:40.995Z,96022.00
2023-01-19T04:40:08.737Z,96012.38
2023-01-19T04:42:35.556Z,96008.63
2023-01-19T04:45:02.300Z,96002.19
2023-01-19T04:47:28.818Z,96011.81
2023-01-19T04:49:55.668Z,96026.59
2023-01-19T04:52:22.184Z,96047.72
2023-01-19T04:54:48.990Z,96056.72
2023-01-19T04:57:15.752Z,96055.53
2023-01-19T04:59:42.543Z,96055.84
2023-01-19T05:02:09.578Z,96068.84
2023-01-19T05:04:36.180Z,96064.34
2023-01-19T05:07:02.720Z,96069.63
2023-01-19T05:09:29.567Z,96080.53
2023-01-19T05:11:56.148Z,96073.00
2023-01-19T05:14:22.778Z,96071.41
2023-01-19T05:16:49.456Z,96074.31
2023-01-19T05:19:25.109Z,96081.44
2023-01-19T05:21:56.145Z,96079.25
2023-01-19T05:24:22.916Z,96075.78
2023-01-19T05:26:49.503Z,96078.38
2023-01-19T05:29:16.199Z,96080.16
2023-01-19T05:31:42.898Z,96068.84
2023-01-19T05:34:11.801Z,96078.47
2023-01-19T05:36:38.927Z,96074.50
2023-01-19T05:39:05.693Z,96081.66
2023-01-19T05:41:32.964Z,96079.06
2023-01-19T05:43:59.551Z,96065.28
2023-01-19T05:46:26.167Z,96059.94
2023-01-19T05:48:52.942Z,96057.34
2023-01-19T05:51:19.528Z,96059.19
2023-01-19T05:53:46.320Z,96076.38
2023-01-19T05:56:13.082Z,96077.47
2023-01-19T05:58:39.815Z,96072.41
2023-01-19T06:01:08.693Z,96042.72
2023-01-19T06:03:37.065Z,96068.31
2023-01-19T06:06:04.656Z,96068.63
2023-01-19T06:08:31.461Z,96060.91
2023-01-19T06:10:58.124Z,96050.78
2023-01-19T06:13:24.829Z,96063.19
2023-01-19T06:15:58.038Z,96067.44
2023-01-19T06:18:25.138Z,96059.50
2023-01-19T06:20:58.553Z,96061.91
2023-01-19T06:23:26.452Z,96073.59
2023-01-19T06:25:53.506Z,96076.28
2023-01-19T06:28:20.217Z,96074.19
2023-01-19T06:30:50.943Z,96071.41
2023-01-19T06:33:18.530Z,96085.50
2023-01-19T06:35:46.478Z,96068.41
2023-01-19T06:38:15.720Z,96090.66
2023-01-19T06:40:42.266Z,96092.56
2023-01-19T06:43:09.441Z,96098.81
2023-01-19T06:45:36.320Z,96110.00
2023-01-19T06:48:03.770Z,96116.94
2023-01-19T06:50:30.337Z,96114.66
2023-01-19T06:52:57.100Z,96128.03
2023-01-19T06:55:23.885Z,96135.47
2023-01-19T06:57:59.070Z,96153.47
2023-01-19T07:00:26.241Z,96155.34
2023-01-19T07:02:53.478Z,96172.53
2023-01-19T07:05:22.158Z,96167.38
2023-01-19T07:07:53.784Z,96171.44
2023-01-19T07:10:21.000Z,96186.34
2023-01-19T07:12:48.536Z,96184.66
2023-01-19T07:15:17.100Z,96189.44
2023-01-19T07:17:44.431Z,96205.13
2023-01-19T07:20:14.362Z,96199.97
2023-01-19T07:22:43.568Z,96193.69
2023-01-19T07:25:10.256Z,96185.75
2023-01-19T07:27:36.811Z,96192.13
2023-01-19T07:30:18.439Z,96185.28
2023-01-19T07:32:44.954Z,96194.69
2023-01-19T07:35:11.553Z,96183.97
2023-01-19T07:37:38.365Z,96167.78
2023-01-19T07:40:05.594Z,96175.84
2023-01-19T07:42:32.288Z,96177.13
2023-01-19T07:44:58.835Z,96171.66
2023-01-19T07:47:25.372Z,96158.19
2023-01-19T07:49:52.832Z,96156.00
2023-01-19T07:52:19.393Z,96146.38
2023-01-19T07:54:51.048Z,96140.19
2023-01-19T07:57:17.639Z,96154.78
2023-01-19T07:59:44.188Z,96167.28
2023-01-19T08:02:11.357Z,96155.19
2023-01-19T08:04:38.298Z,96156.38
2023-01-19T08:07:04.905Z,96165.59
2023-01-19T08:09:31.529Z,96180.19
2023-01-19T08:11:58.083Z,96187.03
2023-01-19T08:14:25.028Z,96195.50
2023-01-19T08:16:51.626Z,96145.53
2023-01-19T08:19:21.861Z,96223.03
2023-01-19T08:21:48.550Z,96210.72
2023-01-19T08:24:21.558Z,96223.00
2023-01-19T08:26:49.013Z,96235.81
2023-01-19T08:29:15.690Z,96230.84
2023-01-19T08:31:42.858Z,96231.66
2023-01-19T08:34:09.510Z,96234.03
2023-01-19T08:36:36.397Z,96231.25
2023-01-19T08:39:03.169Z,96226.38
2023-01-19T08:41:29.738Z,96235.94
2023-01-19T08:43:56.417Z,96234.22
2023-01-19T08:46:23.006Z,96226.38
2023-01-19T08:48:52.587Z,96212.25
2023-01-19T08:51:19.685Z,96189.25
2023-01-19T08:53:46.270Z,96209.28
2023-01-19T08:56:13.907Z,96204.72
2023-01-19T08:58:42.351Z,96207.38
2023-01-19T09:01:12.344Z,96210.88
2023-01-19T09:03:39.153Z,96183.78
2023-01-19T09:06:07.212Z,96189.34
2023-01-19T09:08:33.834Z,96193.59
2023-01-19T09:11:00.591Z,96193.09
2023-01-19T09:13:27.326Z,96187.16
2023-01-19T09:15:53.951Z,96195.47
2023-01-19T09:18:22.592Z,96204.53
2023-01-19T09:20:50.435Z,96197.25
2023-01-19T09:23:21.463Z,96198.56
2023-01-19T09:25:48.428Z,96213.44
2023-01-19T09:28:17.680Z,96234.31
2023-01-19T09:30:45.148Z,96236.22
2023-01-19T09:33:14.810Z,96222.50
2023-01-19T09:35:42.608Z,96224.25
2023-01-19T09:38:10.709Z,96225.66
2023-01-19T09:40:47.458Z,96224.25
2023-01-19T09:43:29.110Z,96226.75
2023-01-19T09:45:59.134Z,96231.91
2023-01-19T09:48:38.673Z,96220.22
2023-01-19T09:51:10.837Z,96210.44
2023-01-19T09:54:07.897Z,96204.59
2023-01-19T09:56:34.753Z,96209.06
2023-01-19T09:59:01.713Z,96191.00
2023-01-19T10:01:47.264Z,96204.09
2023-01-19T10:04:32.224Z,96209.47
2023-01-19T10:07:37.657Z,96212.03
2023-01-19T10:10:26.675Z,96210.44
2023-01-19T10:13:11.841Z,96199.22
2023-01-19T10:16:05.773Z,96196.66
2023-01-19T10:18:48.123Z,96183.75
2023-01-19T10:21:20.005Z,96187.59
2023-01-19T10:23:55.952Z,96190.28
2023-01-19T10:26:33.906Z,96177.47
2023-01-19T10:29:22.622Z,96179.13
2023-01-19T10:31:52.977Z,96167.44
2023-01-19T10:34:23.010Z,96171.41
2023-01-19T10:36:59.085Z,96145.41
2023-01-19T10:39:25.815Z,96174.44
2023-01-19T10:41:53.874Z,96172.09
2023-01-19T10:44:28.206Z,96171.06
2023-01-19T10:47:00.575Z,96174.31
2023-01-19T10:49:28.573Z,96162.78
2023-01-19T10:51:57.504Z,96170.41
2023-01-19T10:54:26.347Z,96172.47
2023-01-19T10:56:59.355Z,96174.81
2023-01-19T10:59:38.778Z,96178.38
2023-01-19T11:02:21.229Z,96185.84
2023-01-19T11:04:50.191Z,96178.03
2023-01-19T11:07:26.028Z,96182.91
2023-01-19T11:10:21.027Z,96174.66
2023-01-19T11:13:01.502Z,96167.63
2023-01-19T11:15:32.625Z,96170.41
2023-01-19T11:17:59.549Z,96167.22
2023-01-19T11:21:09.979Z,96177.47
2023-01-19T11:23:50.964Z,96166.38
2023-01-19T11:26:34.820Z,96152.38
2023-01-19T11:29:04.026Z,96154.69
2023-01-19T11:31:34.056Z,96152.59
2023-01-19T11:34:06.046Z,96147.66
2023-01-19T11:36:35.788Z,96158.19
2023-01-19T11:39:24.483Z,96144.47
2023-01-19T11:41:57.258Z,96148.13
2023-01-19T11:44:34.266Z,96146.47
2023-01-19T11:47:05.277Z,96144.47
2023-01-19T11:49:44.306Z,96149.91
2023-01-19T11:52:26.233Z,96145.34
2023-01-19T11:54:56.876Z,96135.19
2023-01-19T11:57:23.594Z,96144.84
2023-01-19T11:59:52.888Z,96142.66
2023-01-19T12:02:30.935Z,96145.53
2023-01-19T12:05:05.367Z,96157.06
2023-01-19T12:07:36.095Z,96150.59
2023-01-19T12:10:32.140Z,96155.25
2023-01-19T12:12:59.343Z,96149.88
2023-01-19T12:15:45.994Z,96146.78
2023-01-19T12:18:23.006Z,96112.66
2023-01-19T12:20:52.686Z,96144.91
2023-01-19T12:23:30.526Z,96112.06
2023-01-19T12:26:23.181Z,96143.81
2023-01-19T12:28:52.217Z,96129.91
2023-01-19T12:31:23.115Z,96140.47
2023-01-19T12:33:50.683Z,96137.59
2023-01-19T12:36:17.462Z,96137.69
2023-01-19T12:38:54.490Z,96124.78
2023-01-19T12:41:35.707Z,96144.66
2023-01-19T12:44:11.946Z,96137.69
2023-01-19T12:47:04.280Z,96139.09
2023-01-19T12:49:33.222Z,96151.41
2023-01-19T12:52:34.591Z,96152.50
2023-01-19T12:55:20.776Z,96152.59
2023-01-19T12:57:47.315Z,96162.22
2023-01-19T13:00:26.225Z,96163.22
2023-01-19T13:03:14.513Z,96170.66
2023-01-19T13:05:41.056Z,96170.56
2023-01-19T13:08:14.590Z,96162.81
2023-01-19T13:10:59.614Z,96164.19
2023-01-19T13:13:30.916Z,96166.50
2023-01-19T13:16:30.015Z,96167.50
2023-01-19T13:19:06.017Z,96174.84
2023-01-19T13:21:36.601Z,96174.84
2023-01-19T13:24:04.818Z,96180.72
2023-01-19T13:26:34.892Z,96170.97
2023-01-19T13:29:07.294Z,96178.41
2023-01-19T13:31:39.884Z,96153.81
2023-01-19T13:34:27.936Z,96177.31
2023-01-19T13:36:56.537Z,96181.31
2023-01-19T13:39:39.688Z,96176.22
2023-01-19T13:42:16.838Z,96179.81
2023-01-19T13:44:52.417Z,96180.19
2023-01-19T13:47:25.720Z,96176.31
2023-01-19T13:49:56.930Z,96190.81
2023-01-19T13:52:33.810Z,96195.91
2023-01-19T13:55:14.131Z,96206.50
2023-01-19T13:57:48.111Z,96195.91
2023-01-19T14:00:20.420Z,96204.94
2023-01-19T14:03:24.453Z,96210.00
2023-01-19T14:05:53.119Z,96209.59
2023-01-19T14:08:21.497Z,96212.00
2023-01-19T14:11:02.211Z,96207.81
2023-01-19T14:13:31.438Z,96211.19
2023-01-19T14:16:06.057Z,96214.59
2023-01-19T14:18:34.271Z,96225.78
2023-01-19T14:21:12.803Z,96236.50
2023-01-19T14:23:49.773Z,96228.16
2023-01-19T14:27:09.405Z,96227.16
2023-01-19T14:29:40.139Z,96231.94
2023-01-19T14:32:09.715Z,96231.84
2023-01-19T14:34:42.705Z,96235.81
2023-01-19T14:37:15.696Z,96238.78
2023-01-19T14:39:50.844Z,96214.44
2023-01-19T14:42:23.826Z,96225.75
2023-01-19T14:45:16.281Z,96241.38
2023-01-19T14:47:46.144Z,96239.66
2023-01-19T14:50:22.378Z,96239.75
2023-01-19T14:52:56.577Z,96239.25
2023-01-19T14:55:28.855Z,96244.13
2023-01-19T14:57:55.410Z,96210.91
2023-01-19T15:00:22.615Z,96245.72
2023-01-19T15:02:49.593Z,96255.81
2023-01-19T15:05:16.724Z,96232.91
2023-01-19T15:07:45.615Z,96235.28
2023-01-19T15:10:21.037Z,96250.69
2023-01-19T15:12:49.345Z,96258.44
2023-01-19T15:15:22.993Z,96246.00
2023-01-19T15:17:51.179Z,96259.22
2023-01-19T15:20:20.888Z,96259.31
2023-01-19T15:22:48.279Z,96251.94
2023-01-19T15:25:17.495Z,96260.59
2023-01-19T15:27:45.197Z,96251.94
2023-01-19T15:30:21.544Z,96264.94
2023-01-19T15:32:57.356Z,96260.59
2023-01-19T15:35:26.568Z,96270.75
2023-01-19T15:37:53.427Z,96258.22
2023-01-19T15:40:23.353Z,96271.16
2023-01-19T15:42:50.482Z,96264.47
2023-01-19T15:45:39.456Z,96280.44
2023-01-19T15:48:11.720Z,96276.47
2023-01-19T15:50:43.438Z,96278.06
2023-01-19T15:53:18.460Z,96282.63
2023-01-19T15:55:48.670Z,96288.28
2023-01-19T15:58:20.943Z,96281.66
2023-01-19T16:00:58.469Z,96288.09
2023-01-19T16:03:26.267Z,96285.19
2023-01-19T16:05:52.961Z,96283.09
2023-01-19T16:08:22.350Z,96292.44
2023-01-19T16:10:48.904Z,96293.31
2023-01-19T16:13:15.492Z,96297.88
2023-01-19T16:15:45.474Z,96288.34
2023-01-19T16:18:12.182Z,96293.59
2023-01-19T16:20:39.167Z,96297.28
2023-01-19T16:23:21.091Z,96305.84
2023-01-19T16:26:08.006Z,96302.38
2023-01-19T16:28:35.915Z,96301.44
2023-01-19T16:31:03.594Z,96299.84
2023-01-19T16:33:30.874Z,96285.03
2023-01-19T16:35:57.409Z,96301.50
2023-01-19T16:38:24.291Z,96309.66
2023-01-19T16:40:50.930Z,96311.38
2023-01-19T16:43:18.671Z,96320.13
2023-01-19T16:46:00.510Z,96314.75
2023-01-19T16:48:27.542Z,96322.41
2023-01-19T16:51:04.963Z,96318.66
2023-01-19T16:53:34.852Z,96311.97
2023-01-19T16:56:06.715Z,96319.56
2023-01-19T16:58:33.795Z,96322.13
2023-01-19T17:01:00.411Z,96311.78
2023-01-19T17:03:27.229Z,96314.53
2023-01-19T17:05:53.903Z,96324.09
2023-01-19T17:08:20.785Z,96315.63
2023-01-19T17:10:47.996Z,96326.75
2023-01-19T17:13:14.664Z,96318.53
2023-01-19T17:15:41.612Z,96286.63
2023-01-19T17:18:10.253Z,96313.66
2023-01-19T17:20:37.102Z,96302.50
2023-01-19T17:23:03.712Z,96314.06
2023-01-19T17:25:30.618Z,96317.56
2023-01-19T17:28:00.502Z,96310.63
2023-01-19T17:30:27.397Z,96310.63
2023-01-19T17:32:54.057Z,96301.88
2023-01-19T17:35:20.692Z,96323.13
2023-01-19T17:37:47.365Z,96320.75
2023-01-19T17:40:14.476Z,96320.75
2023-01-19T17:42:41.991Z,96319.44
2023-01-19T17:45:10.879Z,96310.56
2023-01-19T17:47:38.747Z,96320.91
2023-01-19T17:50:06.608Z,96320.50
2023-01-19T17:52:33.663Z,96327.72
2023-01-19T17:55:00.612Z,96310.53
2023-01-19T17:57:28.160Z,96326.06
2023-01-19T17:59:54.825Z,96332.44
2023-01-19T18:02:24.593Z,96304.03
2023-01-19T18:04:54.533Z,96335.38
2023-01-19T18:07:21.113Z,96336.78
2023-01-19T18:09:47.986Z,96351.97
2023-01-19T18:12:16.042Z,96332.28
2023-01-19T18:14:43.211Z,96336.78
2023-01-19T18:17:10.243Z,96346.91
2023-01-19T18:19:36.941Z,96345.53
2023-01-19T18:22:03.741Z,96336.97
2023-01-19T18:24:30.617Z,96343.66
2023-01-19T18:26:57.534Z,96341.69
2023-01-19T18:29:24.492Z,96335.38
2023-01-19T18:31:51.219Z,96342.56
2023-01-19T18:34:17.885Z,96354.00
2023-01-19T18:36:44.902Z,96356.06
2023-01-19T18:39:11.794Z,96346.09
2023-01-19T18:41:44.723Z,96349.59
2023-01-19T18:44:12.248Z,96349.78
2023-01-19T18:46:39.391Z,96366.59
2023-01-19T18:49:06.687Z,96347.69
2023-01-19T18:51:33.266Z,96338.53
2023-01-19T18:54:00.380Z,96360.31
2023-01-19T18:56:27.652Z,96363.78
2023-01-19T18:58:54.805Z,96363.19
2023-01-19T19:01:32.643Z,96365.22
2023-01-19T19:04:11.810Z,96368.38
2023-01-19T19:06:38.547Z,96366.59
2023-01-19T19:09:05.468Z,96357.47
2023-01-19T19:11:32.268Z,96363.53
2023-01-19T19:14:01.310Z,96359.06
2023-01-19T19:16:29.789Z,96370.22
2023-01-19T19:18:56.855Z,96383.00
2023-01-19T19:21:25.415Z,96380.13
2023-01-19T19:23:57.540Z,96355.16
2023-01-19T19:26:25.866Z,96382.53
2023-01-19T19:28:52.795Z,96375.66
2023-01-19T19:31:22.176Z,96386.56
2023-01-19T19:33:51.109Z,96383.69
2023-01-19T19:36:20.207Z,96401.88
2023-01-19T19:38:47.882Z,96393.19
2023-01-19T19:41:23.166Z,96403.91
2023-01-19T19:43:50.481Z,96410.84
2023-01-19T19:46:22.039Z,96417.22
2023-01-19T19:48:49.105Z,96415.63
2023-01-19T19:51:22.718Z,96412.44
2023-01-19T19:53:51.954Z,96418.59
2023-01-19T19:56:21.538Z,96421.00
2023-01-19T19:58:48.972Z,96424.75
2023-01-19T20:01:18.090Z,96434.66
2023-01-19T20:03:45.253Z,96436.63
2023-01-19T20:06:14.769Z,96432.34
2023-01-19T20:08:41.678Z,96436.34
2023-01-19T20:11:11.813Z,96455.03
2023-01-19T20:13:40.633Z,96464.66
2023-01-19T20:16:10.693Z,96469.75
2023-01-19T20:18:39.348Z,96476.97
2023-01-19T20:21:18.651Z,96469.00
2023-01-19T20:23:46.816Z,96476.56
2023-01-19T20:26:16.327Z,96478.63
2023-01-19T20:28:43.789Z,96477.28
2023-01-19T20:31:18.204Z,96480.81
2023-01-19T20:33:46.074Z,96480.88
2023-01-19T20:36:13.386Z,96488.06
2023-01-19T20:38:40.423Z,96491.25
2023-01-19T20:41:09.238Z,96493.88
2023-01-19T20:43:36.255Z,96489.13
2023-01-19T20:46:03.205Z,96508.84
2023-01-19T20:48:31.329Z,96513.94
2023-01-19T20:51:06.246Z,96519.66
2023-01-19T20:53:34.270Z,96525.28
2023-01-19T20:56:19.095Z,96527.91
2023-01-19T20:58:45.763Z,96531.97
2023-01-19T21:01:22.025Z,96536.28
2023-01-19T21:03:49.702Z,96536.44
2023-01-19T21:06:20.126Z,96534.84
2023-01-19T21:08:47.419Z,96524.69
2023-01-19T21:11:14.347Z,96525.25
2023-01-19T21:13:41.339Z,96528.28
2023-01-19T21:16:08.399Z,96507.03
2023-01-19T21:18:35.612Z,96526.97
2023-01-19T21:21:02.297Z,96529.88
2023-01-19T21:23:29.977Z,96541.38
2023-01-19T21:25:59.141Z,96545.44
2023-01-19T21:28:27.237Z,96543.84
2023-01-19T21:30:56.737Z,96533.81
2023-01-19T21:33:24.143Z,96549.88
2023-01-19T21:35:56.989Z,96549.13
2023-01-19T21:38:27.045Z,96551.25
2023-01-19T21:40:55.164Z,96556.00
2023-01-19T21:43:23.796Z,96568.81
2023-01-19T21:45:50.674Z,96558.09
2023-01-19T21:48:18.479Z,96558.13
2023-01-19T21:50:45.212Z,96552.84
2023-01-19T21:53:12.012Z,96568.63
2023-01-19T21:55:44.060Z,96558.25
2023-01-19T21:58:10.695Z,96566.28
2023-01-19T22:00:37.545Z,96555.38
2023-01-19T22:03:04.870Z,96574.66
2023-01-19T22:05:36.775Z,96580.53
2023-01-19T22:08:04.356Z,96568.59
2023-01-19T22:10:31.055Z,96585.28
2023-01-19T22:12:57.647Z,96590.38
2023-01-19T22:15:24.272Z,96587.97
2023-01-19T22:17:50.836Z,96582.91
2023-01-19T22:20:17.677Z,96576.50
2023-01-19T22:22:44.283Z,96570.72
2023-01-19T22:25:11.236Z,96589.06
2023-01-19T22:27:38.880Z,96583.44
2023-01-19T22:30:06.219Z,96581.31
2023-01-19T22:32:32.802Z,96596.47
2023-01-19T22:34:59.481Z,96593.06
2023-01-19T22:37:26.099Z,96613.84
2023-01-19T22:39:53.657Z,96593.84
2023-01-19T22:42:20.258Z,96603.78
2023-01-19T22:44:47.053Z,96593.63
2023-01-19T22:47:13.623Z,96600.78
2023-01-19T22:49:40.753Z,96612.31
2023-01-19T22:52:07.699Z,96599.53
2023-01-19T22:54:34.337Z,96606.16
2023-01-19T22:57:02.027Z,96567.31
2023-01-19T22:59:28.899Z,96603.72
2023-01-19T23:01:55.614Z,96583.09
2023-01-19T23:04:22.234Z,96618.00
2023-01-19T23:06:51.545Z,96612.06
2023-01-19T23:09:19.068Z,96613.94
2023-01-19T23:11:51.358Z,96610.72
2023-01-19T23:14:20.791Z,96615.84
2023-01-19T23:16:48.056Z,96625.75
2023-01-19T23:19:17.128Z,96629.25
2023-01-19T23:21:44.772Z,96623.63
2023-01-19T23:24:11.696Z,96621.81
2023-01-19T23:26:38.698Z,96628.72
2023-01-19T23:29:11.758Z,96635.16
2023-01-19T23:31:40.022Z,96614.88
2023-01-19T23:34:09.643Z,96642.03
2023-01-19T23:36:37.711Z,96642.56
2023-01-19T23:39:12.753Z,96648.97
2023-01-19T23:41:39.474Z,96652.44
2023-01-19T23:44:06.135Z,96616.00
2023-01-19T23:46:32.834Z,96657.00
2023-01-19T23:48:59.498Z,96655.44
2023-01-19T23:51:28.917Z,96658.94
2023-01-19T23:53:56.662Z,96664.84
2023-01-19T23:56:29.531Z,96657.38
2023-01-19T23:59:07.795Z,96669.97
